createdAt,value
2023-02-18T00:01:21.337Z,7.10
2023-02-18T00:03:52.367Z,7.10
2023-02-18T00:06:28.599Z,7.10
2023-02-18T00:08:57.210Z,7.10
2023-02-18T00:11:24.212Z,7.10
2023-02-18T00:13:55.950Z,7.00
2023-02-18T00:16:24.651Z,6.90
2023-02-18T00:18:58.093Z,6.80
2023-02-18T00:21:25.328Z,6.90
2023-02-18T00:23:52.232Z,6.80
2023-02-18T00:26:22.452Z,6.80
2023-02-18T00:28:51.399Z,6.80
2023-02-18T00:31:26.355Z,6.80
2023-02-18T00:33:53.657Z,6.80
2023-02-18T00:36:22.435Z,6.80
2023-02-18T00:38:54.674Z,6.70
2023-02-18T00:41:23.922Z,6.60
2023-02-18T00:43:50.968Z,6.70
2023-02-18T00:46:20.136Z,6.60
2023-02-18T00:48:47.182Z,6.50
2023-02-18T00:51:14.472Z,6.50
2023-02-18T00:53:41.593Z,6.50
2023-02-18T00:56:09.280Z,6.50
2023-02-18T00:58:36.643Z,6.60
2023-02-18T01:01:07.418Z,6.50
2023-02-18T01:03:35.549Z,6.50
2023-02-18T01:06:02.363Z,6.50
2023-02-18T01:08:29.264Z,6.50
2023-02-18T01:10:58.698Z,6.40
2023-02-18T01:13:27.698Z,6.50
2023-02-18T01:15:54.771Z,6.50
2023-02-18T01:18:21.891Z,6.50
2023-02-18T01:20:49.147Z,6.50
2023-02-18T01:23:16.682Z,6.50
2023-02-18T01:25:43.472Z,6.40
2023-02-18T01:28:13.508Z,6.50
2023-02-18T01:30:40.790Z,6.50
2023-02-18T01:33:07.975Z,6.50
2023-02-18T01:35:37.281Z,6.40
2023-02-18T01:38:04.135Z,6.40
2023-02-18T01:40:31.769Z,6.40
2023-02-18T01:42:59.705Z,6.40
2023-02-18T01:45:35.802Z,6.50
2023-02-18T01:48:11.750Z,6.50
2023-02-18T01:50:45.124Z,6.40
2023-02-18T01:53:16.678Z,6.40
2023-02-18T01:55:44.917Z,6.40
2023-02-18T01:58:12.446Z,6.40
2023-02-18T02:00:39.426Z,6.40
2023-02-18T02:03:06.362Z,6.40
2023-02-18T02:05:34.503Z,6.40
2023-02-18T02:08:02.837Z,6.40
2023-02-18T02:11:12.553Z,6.40
2023-02-18T02:14:01.115Z,6.30
2023-02-18T02:16:50.485Z,6.30
2023-02-18T02:19:39.107Z,6.30
2023-02-18T02:22:38.671Z,6.40
2023-02-18T02:25:21.627Z,6.30
2023-02-18T02:28:07.256Z,6.20
2023-02-18T02:31:03.027Z,6.30
2023-02-18T02:33:58.424Z,6.20
2023-02-18T02:36:45.435Z,6.20
2023-02-18T02:39:38.471Z,6.30
2023-02-18T02:42:26.447Z,6.20
2023-02-18T02:45:07.120Z,6.30
2023-02-18T02:47:47.498Z,6.30
2023-02-18T02:50:25.604Z,6.20
2023-02-18T02:52:59.281Z,6.20
2023-02-18T02:55:26.238Z,6.20
2023-02-18T02:57:56.246Z,6.20
2023-02-18T03:00:51.006Z,6.20
2023-02-18T03:03:40.421Z,6.30
2023-02-18T03:06:27.126Z,6.20
2023-02-18T03:09:19.920Z,6.10
2023-02-18T03:11:58.674Z,6.20
2023-02-18T03:14:38.777Z,6.10
2023-02-18T03:17:15.548Z,6.10
2023-02-18T03:19:52.814Z,6.20
2023-02-18T03:22:25.208Z,6.10
2023-02-18T03:24:56.337Z,6.00
2023-02-18T03:27:36.254Z,6.00
2023-02-18T03:30:18.340Z,6.00
2023-02-18T03:32:49.591Z,6.10
2023-02-18T03:35:18.447Z,6.00
2023-02-18T03:38:02.903Z,6.00
2023-02-18T03:40:31.299Z,6.00
2023-02-18T03:42:59.605Z,6.00
2023-02-18T03:45:27.456Z,6.00
2023-02-18T03:47:54.380Z,6.00
2023-02-18T03:50:21.340Z,6.00
2023-02-18T03:52:48.146Z,5.90
2023-02-18T03:55:14.971Z,5.80
2023-02-18T03:57:41.782Z,5.80
2023-02-18T04:00:09.415Z,5.90
2023-02-18T04:02:42.305Z,5.90
2023-02-18T04:05:09.510Z,6.00
2023-02-18T04:07:36.514Z,6.00
2023-02-18T04:10:04.730Z,6.10
2023-02-18T04:12:31.615Z,6.10
2023-02-18T04:14:58.429Z,6.00
2023-02-18T04:17:25.289Z,6.00
2023-02-18T04:19:52.176Z,6.00
2023-02-18T04:22:18.955Z,6.10
2023-02-18T04:24:45.752Z,6.20
2023-02-18T04:27:12.492Z,6.30
2023-02-18T04:29:39.364Z,6.30
2023-02-18T04:32:06.292Z,6.30
2023-02-18T04:34:33.101Z,6.40
2023-02-18T04:36:59.842Z,6.40
2023-02-18T04:39:26.635Z,6.40
2023-02-18T04:41:53.521Z,6.50
2023-02-18T04:44:20.503Z,6.50
2023-02-18T04:46:47.370Z,6.60
2023-02-18T04:49:14.188Z,6.60
2023-02-18T04:51:40.950Z,6.60
2023-02-18T04:54:07.788Z,6.70
2023-02-18T04:56:34.539Z,6.70
2023-02-18T04:59:01.485Z,6.70
2023-02-18T05:01:28.254Z,6.70
2023-02-18T05:03:55.151Z,6.70
2023-02-18T05:06:22.008Z,6.70
2023-02-18T05:08:48.925Z,6.80
2023-02-18T05:11:15.819Z,6.80
2023-02-18T05:13:42.676Z,6.80
2023-02-18T05:16:10.078Z,6.80
2023-02-18T05:18:37.068Z,6.80
2023-02-18T05:21:04.055Z,6.80
2023-02-18T05:23:30.884Z,6.80
2023-02-18T05:25:57.672Z,6.80
2023-02-18T05:28:24.847Z,6.80
2023-02-18T05:30:51.729Z,6.80
2023-02-18T05:33:18.480Z,6.80
2023-02-18T05:35:45.238Z,6.80
2023-02-18T05:38:12.104Z,6.80
2023-02-18T05:40:39.172Z,6.80
2023-02-18T05:43:06.085Z,6.70
2023-02-18T05:45:32.872Z,6.70
2023-02-18T05:47:59.662Z,6.70
2023-02-18T05:50:26.483Z,6.70
2023-02-18T05:52:53.470Z,6.70
2023-02-18T05:55:20.377Z,6.80
2023-02-18T05:57:47.292Z,6.70
2023-02-18T06:00:14.599Z,6.70
2023-02-18T06:02:41.484Z,6.70
2023-02-18T06:05:08.897Z,6.70
2023-02-18T06:07:36.215Z,6.70
2023-02-18T06:10:03.560Z,6.60
2023-02-18T06:12:30.516Z,6.70
2023-02-18T06:14:57.325Z,6.60
2023-02-18T06:17:24.151Z,6.70
2023-02-18T06:19:50.991Z,6.70
2023-02-18T06:22:17.835Z,6.70
2023-02-18T06:24:44.775Z,6.80
2023-02-18T06:27:11.563Z,6.70
2023-02-18T06:29:38.378Z,6.70
2023-02-18T06:32:05.487Z,6.70
2023-02-18T06:34:32.367Z,6.70
2023-02-18T06:37:01.248Z,6.60
2023-02-18T06:39:28.276Z,6.60
2023-02-18T06:41:55.085Z,6.50
2023-02-18T06:44:21.893Z,6.50
2023-02-18T06:46:48.744Z,6.50
2023-02-18T06:49:15.579Z,6.40
2023-02-18T06:51:42.451Z,6.40
2023-02-18T06:54:09.273Z,6.40
2023-02-18T06:56:36.161Z,6.40
2023-02-18T06:59:03.096Z,6.50
2023-02-18T07:01:29.993Z,6.50
2023-02-18T07:03:56.851Z,6.50
2023-02-18T07:06:23.669Z,6.40
2023-02-18T07:08:50.461Z,6.40
2023-02-18T07:11:17.335Z,6.30
2023-02-18T07:13:44.202Z,6.30
2023-02-18T07:16:11.743Z,6.20
2023-02-18T07:18:38.877Z,6.20
2023-02-18T07:21:05.834Z,6.20
2023-02-18T07:23:32.837Z,6.20
2023-02-18T07:26:11.443Z,6.10
2023-02-18T07:28:39.199Z,6.10
2023-02-18T07:31:06.601Z,6.10
2023-02-18T07:33:33.908Z,6.10
2023-02-18T07:36:01.820Z,6.10
2023-02-18T07:38:29.506Z,6.10
2023-02-18T07:40:57.678Z,6.10
2023-02-18T07:43:24.541Z,6.20
2023-02-18T07:45:51.459Z,6.20
2023-02-18T07:48:18.366Z,6.20
2023-02-18T07:50:46.342Z,6.20
2023-02-18T07:53:17.503Z,6.30
2023-02-18T07:55:50.059Z,6.30
2023-02-18T07:58:19.937Z,6.50
2023-02-18T08:00:49.309Z,6.40
2023-02-18T08:03:20.600Z,6.50
2023-02-18T08:05:52.257Z,6.50
2023-02-18T08:08:22.167Z,6.60
2023-02-18T08:10:50.702Z,6.60
2023-02-18T08:13:17.794Z,6.60
2023-02-18T08:15:44.664Z,6.60
2023-02-18T08:18:19.868Z,6.60
2023-02-18T08:20:48.053Z,6.70
2023-02-18T08:23:15.407Z,6.70
2023-02-18T08:25:49.258Z,6.70
2023-02-18T08:28:18.195Z,6.70
2023-02-18T08:30:46.219Z,6.60
2023-02-18T08:33:13.457Z,6.60
2023-02-18T08:35:40.370Z,6.60
2023-02-18T08:38:18.491Z,6.50
2023-02-18T08:40:45.958Z,6.50
2023-02-18T08:43:13.756Z,6.30
2023-02-18T08:45:40.800Z,6.40
2023-02-18T08:48:18.028Z,6.40
2023-02-18T08:50:48.122Z,6.30
2023-02-18T08:53:15.196Z,6.30
2023-02-18T08:55:42.197Z,6.30
2023-02-18T08:58:09.515Z,6.30
2023-02-18T09:00:37.222Z,6.30
2023-02-18T09:03:04.191Z,6.30
2023-02-18T09:05:31.134Z,6.30
2023-02-18T09:07:58.072Z,6.30
2023-02-18T09:10:25.384Z,6.30
2023-02-18T09:12:52.156Z,6.40
2023-02-18T09:15:19.375Z,6.40
2023-02-18T09:17:46.300Z,6.50
2023-02-18T09:20:13.448Z,6.50
2023-02-18T09:22:40.691Z,6.60
2023-02-18T09:25:08.076Z,6.60
2023-02-18T09:27:35.026Z,6.60
2023-02-18T09:30:02.176Z,6.60
2023-02-18T09:32:34.745Z,6.60
2023-02-18T09:35:03.744Z,6.70
2023-02-18T09:37:30.832Z,6.60
2023-02-18T09:39:57.905Z,6.60
2023-02-18T09:42:33.341Z,6.60
2023-02-18T09:45:07.643Z,6.70
2023-02-18T09:47:38.827Z,6.70
2023-02-18T09:50:24.055Z,6.80
2023-02-18T09:52:50.880Z,6.80
2023-02-18T09:55:27.346Z,6.80
2023-02-18T09:58:04.245Z,6.80
2023-02-18T10:00:36.405Z,6.80
2023-02-18T10:03:08.675Z,6.80
2023-02-18T10:05:37.410Z,6.80
2023-02-18T10:08:22.840Z,6.80
2023-02-18T10:10:49.897Z,6.90
2023-02-18T10:13:38.810Z,6.80
2023-02-18T10:16:06.046Z,6.80
2023-02-18T10:18:38.156Z,6.80
2023-02-18T10:21:09.203Z,6.80
2023-02-18T10:23:40.133Z,6.80
2023-02-18T10:26:14.916Z,6.80
2023-02-18T10:28:42.029Z,6.90
2023-02-18T10:31:15.266Z,6.90
2023-02-18T10:33:48.379Z,6.90
2023-02-18T10:36:36.568Z,7.00
2023-02-18T10:39:11.132Z,6.90
2023-02-18T10:42:05.476Z,7.00
2023-02-18T10:44:47.686Z,7.00
2023-02-18T10:47:39.089Z,7.00
2023-02-18T10:50:24.722Z,7.10
2023-02-18T10:52:54.665Z,7.00
2023-02-18T10:55:36.071Z,7.10
2023-02-18T10:58:03.624Z,7.00
2023-02-18T11:00:39.396Z,7.00
2023-02-18T11:03:22.640Z,7.00
2023-02-18T11:05:54.429Z,7.10
2023-02-18T11:08:28.001Z,7.20
2023-02-18T11:10:56.122Z,7.20
2023-02-18T11:13:34.939Z,7.20
2023-02-18T11:16:06.191Z,7.40
2023-02-18T11:18:48.287Z,7.40
2023-02-18T11:21:24.118Z,7.50
2023-02-18T11:23:53.313Z,7.40
2023-02-18T11:26:40.599Z,7.40
2023-02-18T11:29:27.107Z,7.40
2023-02-18T11:31:56.804Z,7.40
2023-02-18T11:34:29.656Z,7.40
2023-02-18T11:37:12.844Z,7.50
2023-02-18T11:39:45.360Z,7.50
2023-02-18T11:42:17.394Z,7.60
2023-02-18T11:44:56.885Z,7.70
2023-02-18T11:47:36.120Z,7.70
2023-02-18T11:50:08.699Z,7.80
2023-02-18T11:52:41.610Z,7.80
2023-02-18T11:55:16.202Z,7.90
2023-02-18T11:58:05.920Z,7.90
2023-02-18T12:00:40.512Z,8.00
2023-02-18T12:03:35.289Z,8.00
2023-02-18T12:06:11.217Z,8.00
2023-02-18T12:08:50.504Z,8.20
2023-02-18T12:11:28.007Z,8.50
2023-02-18T12:13:57.763Z,8.60
2023-02-18T12:16:43.277Z,8.80
2023-02-18T12:19:41.033Z,8.90
2023-02-18T12:22:25.905Z,9.00
2023-02-18T12:25:21.646Z,9.20
2023-02-18T12:27:59.361Z,9.30
2023-02-18T12:30:58.212Z,9.40
2023-02-18T12:34:02.422Z,9.60
2023-02-18T12:36:35.040Z,9.60
2023-02-18T12:39:12.618Z,9.60
2023-02-18T12:41:51.291Z,9.70
2023-02-18T12:44:33.802Z,9.80
2023-02-18T12:47:22.272Z,9.90
2023-02-18T12:50:27.324Z,9.90
2023-02-18T12:53:00.116Z,10.00
2023-02-18T12:56:01.038Z,10.00
2023-02-18T12:58:30.617Z,10.10
2023-02-18T13:01:12.445Z,10.20
2023-02-18T13:03:47.039Z,10.20
2023-02-18T13:06:26.254Z,10.20
2023-02-18T13:08:55.937Z,10.20
2023-02-18T13:11:38.117Z,10.30
2023-02-18T13:14:16.830Z,10.20
2023-02-18T13:16:48.632Z,10.30
2023-02-18T13:19:26.481Z,10.30
2023-02-18T13:22:05.596Z,10.30
2023-02-18T13:24:43.629Z,10.30
2023-02-18T13:27:37.970Z,10.30
2023-02-18T13:30:10.930Z,10.30
2023-02-18T13:33:11.491Z,10.40
2023-02-18T13:35:47.587Z,10.30
2023-02-18T13:38:40.666Z,10.30
2023-02-18T13:41:08.737Z,10.30
2023-02-18T13:43:36.027Z,10.30
2023-02-18T13:46:11.944Z,10.20
2023-02-18T13:48:55.510Z,10.20
2023-02-18T13:51:50.419Z,10.20
2023-02-18T13:54:33.792Z,10.10
2023-02-18T13:57:06.958Z,10.20
2023-02-18T13:59:42.245Z,10.10
2023-02-18T14:02:36.473Z,10.10
2023-02-18T14:05:09.722Z,10.10
2023-02-18T14:07:36.652Z,10.10
2023-02-18T14:10:26.417Z,10.10
2023-02-18T14:12:59.126Z,10.10
2023-02-18T14:15:25.884Z,10.10
2023-02-18T14:17:58.791Z,10.00
2023-02-18T14:20:33.761Z,10.00
2023-02-18T14:23:00.770Z,10.00
2023-02-18T14:25:51.508Z,10.00
2023-02-18T14:28:36.896Z,9.90
2023-02-18T14:31:30.644Z,9.90
2023-02-18T14:34:28.902Z,9.90
2023-02-18T14:37:26.853Z,10.00
2023-02-18T14:40:10.174Z,9.90
2023-02-18T14:43:18.933Z,10.00
2023-02-18T14:46:19.906Z,10.00
2023-02-18T14:49:24.483Z,10.00
2023-02-18T14:51:53.759Z,9.90
2023-02-18T14:54:24.829Z,10.00
2023-02-18T14:57:03.784Z,10.00
2023-02-18T14:59:42.897Z,10.00
2023-02-18T15:02:30.949Z,10.00
2023-02-18T15:05:23.547Z,10.10
2023-02-18T15:08:14.468Z,10.10
2023-02-18T15:10:58.149Z,10.10
2023-02-18T15:13:31.705Z,10.00
2023-02-18T15:16:21.726Z,10.00
2023-02-18T15:18:58.363Z,10.00
2023-02-18T15:21:31.646Z,10.00
2023-02-18T15:24:21.628Z,9.90
2023-02-18T15:26:53.503Z,9.90
2023-02-18T15:29:31.198Z,9.90
2023-02-18T15:32:05.843Z,9.90
2023-02-18T15:34:38.622Z,9.90
2023-02-18T15:37:12.983Z,9.90
2023-02-18T15:39:44.402Z,9.90
2023-02-18T15:42:50.783Z,9.80
2023-02-18T15:45:22.964Z,9.80
2023-02-18T15:47:55.700Z,9.90
2023-02-18T15:50:26.550Z,9.90
2023-02-18T15:52:55.843Z,9.80
2023-02-18T15:55:32.085Z,9.80
2023-02-18T15:58:10.752Z,9.80
2023-02-18T16:00:41.237Z,9.80
2023-02-18T16:03:19.959Z,10.00
2023-02-18T16:05:47.332Z,10.20
2023-02-18T16:08:26.020Z,10.20
2023-02-18T16:11:03.039Z,10.20
2023-02-18T16:13:31.694Z,10.20
2023-02-18T16:16:00.975Z,10.20
2023-02-18T16:18:39.440Z,10.10
2023-02-18T16:21:18.251Z,10.20
2023-02-18T16:23:57.856Z,10.20
2023-02-18T16:26:39.703Z,10.20
2023-02-18T16:29:32.607Z,10.10
2023-02-18T16:31:59.628Z,10.10
2023-02-18T16:34:27.634Z,10.00
2023-02-18T16:37:13.668Z,9.90
2023-02-18T16:39:40.702Z,9.80
2023-02-18T16:42:12.324Z,9.70
2023-02-18T16:44:40.297Z,9.70
2023-02-18T16:47:08.161Z,9.70
2023-02-18T16:49:35.916Z,9.70
2023-02-18T16:52:07.862Z,9.80
2023-02-18T16:54:35.247Z,9.70
2023-02-18T16:57:02.144Z,9.70
2023-02-18T16:59:28.968Z,9.70
2023-02-18T17:01:56.038Z,9.80
2023-02-18T17:04:23.519Z,9.70
2023-02-18T17:06:50.489Z,9.80
2023-02-18T17:09:26.930Z,9.80
2023-02-18T17:11:55.957Z,9.80
2023-02-18T17:14:23.504Z,9.80
2023-02-18T17:16:53.350Z,9.90
2023-02-18T17:19:20.786Z,9.90
2023-02-18T17:21:48.974Z,10.00
2023-02-18T17:24:17.797Z,9.90
2023-02-18T17:26:45.203Z,9.90
2023-02-18T17:29:12.298Z,10.00
2023-02-18T17:31:44.411Z,10.00
2023-02-18T17:34:16.666Z,10.10
2023-02-18T17:36:45.457Z,10.10
2023-02-18T17:39:17.320Z,9.90
2023-02-18T17:41:44.669Z,10.00
2023-02-18T17:44:20.822Z,9.90
2023-02-18T17:46:51.176Z,9.90
2023-02-18T17:49:18.511Z,10.00
2023-02-18T17:51:45.660Z,9.90
2023-02-18T17:54:15.374Z,9.90
2023-02-18T17:56:42.518Z,9.80
2023-02-18T17:59:12.591Z,9.30
2023-02-18T18:01:39.912Z,8.70
2023-02-18T18:04:15.714Z,8.50
2023-02-18T18:06:43.431Z,8.30
2023-02-18T18:09:10.339Z,8.10
2023-02-18T18:11:37.544Z,8.10
2023-02-18T18:14:04.485Z,8.00
2023-02-18T18:16:31.628Z,8.00
2023-02-18T18:18:58.514Z,7.90
2023-02-18T18:21:31.789Z,7.90
2023-02-18T18:23:58.577Z,7.90
2023-02-18T18:26:25.480Z,7.80
2023-02-18T18:28:53.401Z,7.80
2023-02-18T18:31:20.849Z,7.80
2023-02-18T18:33:51.235Z,7.70
2023-02-18T18:36:23.882Z,7.70
2023-02-18T18:38:50.773Z,7.70
2023-02-18T18:41:20.395Z,7.60
2023-02-18T18:43:47.888Z,7.60
2023-02-18T18:46:14.886Z,7.50
2023-02-18T18:48:42.073Z,7.50
2023-02-18T18:51:15.908Z,7.50
2023-02-18T18:53:43.300Z,7.50
2023-02-18T18:56:12.750Z,7.40
2023-02-18T18:58:39.748Z,7.40
2023-02-18T19:01:19.924Z,7.40
2023-02-18T19:03:47.377Z,7.30
2023-02-18T19:06:16.072Z,7.30
2023-02-18T19:08:43.580Z,7.20
2023-02-18T19:11:12.059Z,7.30
2023-02-18T19:13:39.347Z,7.20
2023-02-18T19:16:20.002Z,7.20
2023-02-18T19:18:50.168Z,7.10
2023-02-18T19:21:17.050Z,7.10
2023-02-18T19:23:44.243Z,7.10
2023-02-18T19:26:12.708Z,7.10
2023-02-18T19:28:39.541Z,7.00
2023-02-18T19:31:10.623Z,7.00
2023-02-18T19:33:39.070Z,7.00
2023-02-18T19:36:11.285Z,6.90
2023-02-18T19:38:38.425Z,6.90
2023-02-18T19:41:12.375Z,6.90
2023-02-18T19:43:40.936Z,6.90
2023-02-18T19:46:14.365Z,6.90
2023-02-18T19:48:41.852Z,6.80
2023-02-18T19:51:09.718Z,6.80
2023-02-18T19:53:37.042Z,6.80
2023-02-18T19:56:07.827Z,6.70
2023-02-18T19:58:36.256Z,6.70
2023-02-18T20:01:03.845Z,6.70
2023-02-18T20:03:30.778Z,6.60
2023-02-18T20:05:57.590Z,6.60
2023-02-18T20:08:24.477Z,6.60
2023-02-18T20:10:58.502Z,6.60
2023-02-18T20:13:25.739Z,6.70
2023-02-18T20:15:52.778Z,6.70
2023-02-18T20:18:19.791Z,6.70
2023-02-18T20:20:48.733Z,6.70
2023-02-18T20:23:16.418Z,6.60
2023-02-18T20:25:43.585Z,6.60
2023-02-18T20:28:10.402Z,6.60
2023-02-18T20:30:37.572Z,6.60
2023-02-18T20:33:05.701Z,6.60
2023-02-18T20:35:32.457Z,6.60
2023-02-18T20:37:59.326Z,6.50
2023-02-18T20:40:27.135Z,6.50
2023-02-18T20:42:54.110Z,6.50
2023-02-18T20:45:21.667Z,6.50
2023-02-18T20:47:48.542Z,6.40
2023-02-18T20:50:15.888Z,6.40
2023-02-18T20:52:42.708Z,6.40
2023-02-18T20:55:09.495Z,6.50
2023-02-18T20:57:36.336Z,6.50
2023-02-18T21:00:04.315Z,6.60
2023-02-18T21:02:31.201Z,6.40
2023-02-18T21:04:58.023Z,6.40
2023-02-18T21:07:24.863Z,6.30
2023-02-18T21:09:51.631Z,6.30
2023-02-18T21:12:18.450Z,6.20
2023-02-18T21:14:45.306Z,6.20
2023-02-18T21:17:12.062Z,6.20
2023-02-18T21:19:38.839Z,6.10
2023-02-18T21:22:05.733Z,6.10
2023-02-18T21:24:32.524Z,6.10
2023-02-18T21:26:59.479Z,6.10
2023-02-18T21:29:26.369Z,6.10
2023-02-18T21:31:53.276Z,6.10
2023-02-18T21:34:21.066Z,6.10
2023-02-18T21:36:48.516Z,6.00
2023-02-18T21:39:15.270Z,6.10
2023-02-18T21:41:42.021Z,6.10
2023-02-18T21:44:09.921Z,6.10
2023-02-18T21:46:37.587Z,6.10
2023-02-18T21:49:05.907Z,6.10
2023-02-18T21:52:08.505Z,6.10
2023-02-18T21:54:37.314Z,6.10
2023-02-18T21:57:06.423Z,6.10
2023-02-18T21:59:34.567Z,6.10
2023-02-18T22:02:01.362Z,6.10
2023-02-18T22:04:30.840Z,6.10
2023-02-18T22:06:58.416Z,6.10
2023-02-18T22:09:26.108Z,6.00
2023-02-18T22:11:53.158Z,6.00
2023-02-18T22:14:20.177Z,6.00
2023-02-18T22:16:47.050Z,6.00
2023-02-18T22:19:14.475Z,6.00
2023-02-18T22:21:42.183Z,5.90
2023-02-18T22:24:10.916Z,5.90
2023-02-18T22:26:38.102Z,5.90
2023-02-18T22:29:05.302Z,5.90
2023-02-18T22:31:32.656Z,5.90
2023-02-18T22:34:00.390Z,5.90
2023-02-18T22:36:28.666Z,5.80
2023-02-18T22:38:56.175Z,5.80
2023-02-18T22:41:25.914Z,5.80
2023-02-18T22:43:57.684Z,5.70
2023-02-18T22:46:25.084Z,5.70
2023-02-18T22:48:54.443Z,5.70
2023-02-18T22:51:25.242Z,5.70
2023-02-18T22:53:57.259Z,5.70
2023-02-18T22:56:25.451Z,5.70
2023-02-18T22:58:52.923Z,5.70
2023-02-18T23:01:32.732Z,5.70
2023-02-18T23:04:06.007Z,5.70
2023-02-18T23:06:33.185Z,5.70
2023-02-18T23:09:00.013Z,5.70
2023-02-18T23:11:27.824Z,5.70
2023-02-18T23:14:14.462Z,5.70
2023-02-18T23:17:01.108Z,5.70
2023-02-18T23:19:29.108Z,5.70
2023-02-18T23:21:55.919Z,5.70
2023-02-18T23:24:23.104Z,5.70
2023-02-18T23:26:50.367Z,5.70
2023-02-18T23:29:17.932Z,5.70
2023-02-18T23:31:44.877Z,5.70
2023-02-18T23:34:14.772Z,5.70
2023-02-18T23:36:43.009Z,5.70
2023-02-18T23:39:11.897Z,5.60
2023-02-18T23:41:39.163Z,5.60
2023-02-18T23:44:08.152Z,5.60
2023-02-18T23:46:35.529Z,5.60
2023-02-18T23:49:02.793Z,5.60
2023-02-18T23:51:32.482Z,5.60
2023-02-18T23:54:06.132Z,5.60
2023-02-18T23:56:33.131Z,5.60
2023-02-18T23:59:02.300Z,5.60
